Terri L. Brusco — WDC3034 — position and weather

sailwx.info

Track history (hours):
 
Tides and Currents Weather Stations Pressure Air Temp Water Temp Dewpoint Dewpoint Depression Visibility Wind Speed Wind Dir Waves Ship Positions

Terri L. Brusco

Owner: Brusco Tug & Barge, Inc., Longview, WA. More information available from US FCC via Universal Licensing System and Coast Guard Vessel Documentation Center.

Last reported at 2017-Oct-18 02:47 UTC. Time now 2017-Oct-18 16:47 UTC.
Position N 38°02' W 121°51'.

Length 21 m; draft 4 m.

Type: Tow > 200 m length. MMSI: 367001830.

Date/timePositionNaut miles runAvg speedWind from/ knotsBaromVisibWave heightAir tempDewpointWater temp
2017-Oct-18 02:47N 38°02' W 121°51'2 4.8
2017-Oct-18 02:28N 38°02' W 121°53'2 4.5
2017-Oct-18 01:58N 38°03' W 121°55'10 4.1
2017-Oct-17 23:32N 38°02' W 122°08'0 4.3
2017-Oct-17 23:30N 38°02' W 122°08'2 4.3
2017-Oct-17 23:00N 38°03' W 122°11'2 4.4
2017-Oct-17 22:30N 38°04' W 122°13'3 5.2
2017-Oct-17 22:00N 38°03' W 122°17'3 5.7
2017-Oct-17 21:25N 38°02' W 122°21'2 5.9
2017-Oct-17 21:00N 38°01' W 122°23'3 6.0
2017-Oct-17 20:30N 37°59' W 122°26'0 0.6
2017-Oct-17 20:00N 37°59' W 122°27'0 0.7
2017-Oct-17 19:29N 37°59' W 122°27'0 0.2
2017-Oct-17 17:58N 37°59' W 122°27'0 0.7
2017-Oct-17 17:30N 37°59' W 122°27'0 0.2
2017-Oct-17 17:00N 37°59' W 122°27'0 0.0
2017-Oct-17 16:30N 37°59' W 122°27'0 0.0
2017-Oct-17 16:00N 37°59' W 122°27'0 0.0
2017-Oct-17 15:30N 37°59' W 122°27'0 0.0
2017-Oct-17 15:00N 37°59' W 122°27'0 0.0
2017-Oct-17 14:30N 37°59' W 122°27'0 0.6
2017-Oct-17 14:00N 37°59' W 122°26'0 0.3
2017-Oct-17 13:31N 37°59' W 122°27'0 0.5
2017-Oct-17 13:00N 37°59' W 122°26'0 0.1
2017-Oct-17 12:30N 37°59' W 122°26'0 0.0
2017-Oct-17 12:00N 37°59' W 122°26'0 0.0
2017-Oct-17 11:30N 37°59' W 122°26'0 0.0
2017-Oct-17 11:00N 37°59' W 122°26'0 0.0
2017-Oct-17 10:30N 37°59' W 122°26'0 0.0
2017-Oct-17 10:00N 37°59' W 122°26'0 0.0
2017-Oct-17 09:30N 37°59' W 122°26'0 0.1
2017-Oct-17 09:00N 37°59' W 122°26'0 0.0
2017-Oct-17 08:30N 37°59' W 122°26'0 0.0
2017-Oct-17 08:00N 37°59' W 122°26'0 0.1
2017-Oct-17 07:30N 37°59' W 122°26'0 0.1
2017-Oct-17 07:00N 37°59' W 122°26'0 0.1
2017-Oct-17 06:30N 37°59' W 122°26'0 0.2
2017-Oct-17 06:00N 37°59' W 122°26'3 5.9
2017-Oct-17 05:31N 38°01' W 122°23'5 6.7
2017-Oct-17 04:44N 38°03' W 122°17'2 7.2
2017-Oct-17 04:26N 38°04' W 122°15'3 7.5
2017-Oct-17 04:00N 38°03' W 122°11'  
2017-Oct-12 22:22N 38°03' W 122°11'5 9.9
2017-Oct-12 21:53N 38°03' W 122°17'4 9.9
2017-Oct-12 21:30N 38°02' W 122°21'611.0
2017-Oct-12 21:00N 37°58' W 122°26'510.7
2017-Oct-12 20:30N 37°53' W 122°24'510.2
2017-Oct-12 20:00N 37°48' W 122°21'3 6.8
2017-Oct-12 19:30N 37°48' W 122°17'1 2.8
2017-Oct-12 19:00N 37°47' W 122°15'1 1.3
2017-Oct-12 18:30N 37°46' W 122°15'0 0.0
2017-Oct-12 18:00N 37°46' W 122°15'0 0.0
2017-Oct-12 17:30N 37°46' W 122°15'0 0.0
2017-Oct-12 17:00N 37°46' W 122°15'0 0.0
2017-Oct-12 16:30N 37°46' W 122°15'0 0.0
2017-Oct-12 16:00N 37°46' W 122°15'0 0.0
2017-Oct-12 15:30N 37°46' W 122°15'0 0.0
2017-Oct-12 15:00N 37°46' W 122°15'0 0.0
2017-Oct-12 14:30N 37°46' W 122°15'0 0.0
2017-Oct-12 14:00N 37°46' W 122°15'0 0.0
2017-Oct-12 13:30N 37°46' W 122°15'0 0.0
2017-Oct-12 13:00N 37°46' W 122°15'0 0.0
2017-Oct-12 12:30N 37°46' W 122°15'0 0.0
2017-Oct-12 12:00N 37°46' W 122°15'0 0.0
2017-Oct-12 11:30N 37°46' W 122°15'0 0.0
2017-Oct-12 11:00N 37°46' W 122°15'0 0.0
2017-Oct-12 10:30N 37°46' W 122°15'0 0.0
2017-Oct-12 10:00N 37°46' W 122°15'0 0.0
2017-Oct-12 09:30N 37°46' W 122°15'0 0.0
2017-Oct-12 09:00N 37°46' W 122°15'0 0.0
2017-Oct-12 08:30N 37°46' W 122°15'0 0.0
2017-Oct-12 08:00N 37°46' W 122°15'1 1.3
2017-Oct-12 07:30N 37°47' W 122°15'2 3.9
2017-Oct-12 07:00N 37°48' W 122°17'3 6.1
2017-Oct-12 06:30N 37°49' W 122°21'2 4.8
2017-Oct-12 06:00N 37°51' W 122°23'4 7.5
2017-Oct-12 05:30N 37°54' W 122°26'5 9.3
2017-Oct-12 05:00N 37°58' W 122°26'5 9.4
2017-Oct-12 04:30N 38°02' W 122°22'4 8.3
2017-Oct-12 04:00N 38°03' W 122°17'4 7.9
2017-Oct-12 03:30N 38°03' W 122°12'1 0.0
2017-Oct-10 01:13N 38°03' W 122°11'1 5.9
2017-Oct-10 01:00N 38°03' W 122°12'4 6.5
2017-Oct-10 00:26N 38°03' W 122°17'3 6.5
2017-Oct-10 00:01N 38°03' W 122°20'3 6.6
2017-Oct-09 23:29N 38°01' W 122°24'3 4.8
2017-Oct-09 22:58N 37°59' W 122°27'0 0.0
2017-Oct-09 18:56N 37°59' W 122°27'0 0.0
2017-Oct-09 18:28N 37°59' W 122°27'0 0.1
2017-Oct-09 14:18N 37°59' W 122°27'1 1.9
2017-Oct-09 14:00N 37°59' W 122°26'0 0.0
2017-Oct-09 13:26N 37°59' W 122°26'0 0.1
2017-Oct-09 07:48N 37°59' W 122°27'0 1.3
2017-Oct-09 07:28N 37°59' W 122°26'0 0.0
2017-Oct-09 05:28N 37°59' W 122°26'0 0.0
2017-Oct-09 02:55N 37°59' W 122°26'2 5.1
2017-Oct-09 02:29N 38°00' W 122°24'610.0
2017-Oct-09 01:52N 38°03' W 122°17'4 9.7
2017-Oct-09 01:30N 38°04' W 122°13'  
Track history (hours):
 
Tides and Currents Weather Stations Pressure Air Temp Water Temp Dewpoint Dewpoint Depression Visibility Wind Speed Wind Dir Waves Ship Positions

Terri L. Brusco

Owner: Brusco Tug & Barge, Inc., Longview, WA. More information available from US FCC via Universal Licensing System and Coast Guard Vessel Documentation Center.

Last reported at 2017-Oct-18 02:47 UTC. Time now 2017-Oct-18 16:47 UTC.
Position N 38°02' W 121°51'.

Length 21 m; draft 4 m.

Type: Tow > 200 m length. MMSI: 367001830.

Date/timePositionNaut miles runAvg speedWind from/ knotsBaromVisibWave heightAir tempDewpointWater temp
2017-Oct-18 02:47N 38°02' W 121°51'2 4.8
2017-Oct-18 02:28N 38°02' W 121°53'2 4.5
2017-Oct-18 01:58N 38°03' W 121°55'10 4.1
2017-Oct-17 23:32N 38°02' W 122°08'0 4.3
2017-Oct-17 23:30N 38°02' W 122°08'2 4.3
2017-Oct-17 23:00N 38°03' W 122°11'2 4.4
2017-Oct-17 22:30N 38°04' W 122°13'3 5.2
2017-Oct-17 22:00N 38°03' W 122°17'3 5.7
2017-Oct-17 21:25N 38°02' W 122°21'2 5.9
2017-Oct-17 21:00N 38°01' W 122°23'3 6.0
2017-Oct-17 20:30N 37°59' W 122°26'0 0.6
2017-Oct-17 20:00N 37°59' W 122°27'0 0.7
2017-Oct-17 19:29N 37°59' W 122°27'0 0.2
2017-Oct-17 17:58N 37°59' W 122°27'0 0.7
2017-Oct-17 17:30N 37°59' W 122°27'0 0.2
2017-Oct-17 17:00N 37°59' W 122°27'0 0.0
2017-Oct-17 16:30N 37°59' W 122°27'0 0.0
2017-Oct-17 16:00N 37°59' W 122°27'0 0.0
2017-Oct-17 15:30N 37°59' W 122°27'0 0.0
2017-Oct-17 15:00N 37°59' W 122°27'0 0.0
2017-Oct-17 14:30N 37°59' W 122°27'0 0.6
2017-Oct-17 14:00N 37°59' W 122°26'0 0.3
2017-Oct-17 13:31N 37°59' W 122°27'0 0.5
2017-Oct-17 13:00N 37°59' W 122°26'0 0.1
2017-Oct-17 12:30N 37°59' W 122°26'0 0.0
2017-Oct-17 12:00N 37°59' W 122°26'0 0.0
2017-Oct-17 11:30N 37°59' W 122°26'0 0.0
2017-Oct-17 11:00N 37°59' W 122°26'0 0.0
2017-Oct-17 10:30N 37°59' W 122°26'0 0.0
2017-Oct-17 10:00N 37°59' W 122°26'0 0.0
2017-Oct-17 09:30N 37°59' W 122°26'0 0.1
2017-Oct-17 09:00N 37°59' W 122°26'0 0.0
2017-Oct-17 08:30N 37°59' W 122°26'0 0.0
2017-Oct-17 08:00N 37°59' W 122°26'0 0.1
2017-Oct-17 07:30N 37°59' W 122°26'0 0.1
2017-Oct-17 07:00N 37°59' W 122°26'0 0.1
2017-Oct-17 06:30N 37°59' W 122°26'0 0.2
2017-Oct-17 06:00N 37°59' W 122°26'3 5.9
2017-Oct-17 05:31N 38°01' W 122°23'5 6.7
2017-Oct-17 04:44N 38°03' W 122°17'2 7.2
2017-Oct-17 04:26N 38°04' W 122°15'3 7.5
2017-Oct-17 04:00N 38°03' W 122°11'  
2017-Oct-12 22:22N 38°03' W 122°11'5 9.9
2017-Oct-12 21:53N 38°03' W 122°17'4 9.9
2017-Oct-12 21:30N 38°02' W 122°21'611.0
2017-Oct-12 21:00N 37°58' W 122°26'510.7
2017-Oct-12 20:30N 37°53' W 122°24'510.2
2017-Oct-12 20:00N 37°48' W 122°21'3 6.8
2017-Oct-12 19:30N 37°48' W 122°17'1 2.8
2017-Oct-12 19:00N 37°47' W 122°15'1 1.3
2017-Oct-12 18:30N 37°46' W 122°15'0 0.0
2017-Oct-12 18:00N 37°46' W 122°15'0 0.0
2017-Oct-12 17:30N 37°46' W 122°15'0 0.0
2017-Oct-12 17:00N 37°46' W 122°15'0 0.0
2017-Oct-12 16:30N 37°46' W 122°15'0 0.0
2017-Oct-12 16:00N 37°46' W 122°15'0 0.0
2017-Oct-12 15:30N 37°46' W 122°15'0 0.0
2017-Oct-12 15:00N 37°46' W 122°15'0 0.0
2017-Oct-12 14:30N 37°46' W 122°15'0 0.0
2017-Oct-12 14:00N 37°46' W 122°15'0 0.0
2017-Oct-12 13:30N 37°46' W 122°15'0 0.0
2017-Oct-12 13:00N 37°46' W 122°15'0 0.0
2017-Oct-12 12:30N 37°46' W 122°15'0 0.0
2017-Oct-12 12:00N 37°46' W 122°15'0 0.0
2017-Oct-12 11:30N 37°46' W 122°15'0 0.0
2017-Oct-12 11:00N 37°46' W 122°15'0 0.0
2017-Oct-12 10:30N 37°46' W 122°15'0 0.0
2017-Oct-12 10:00N 37°46' W 122°15'0 0.0
2017-Oct-12 09:30N 37°46' W 122°15'0 0.0
2017-Oct-12 09:00N 37°46' W 122°15'0 0.0
2017-Oct-12 08:30N 37°46' W 122°15'0 0.0
2017-Oct-12 08:00N 37°46' W 122°15'1 1.3
2017-Oct-12 07:30N 37°47' W 122°15'2 3.9
2017-Oct-12 07:00N 37°48' W 122°17'3 6.1
2017-Oct-12 06:30N 37°49' W 122°21'2 4.8
2017-Oct-12 06:00N 37°51' W 122°23'4 7.5
2017-Oct-12 05:30N 37°54' W 122°26'5 9.3
2017-Oct-12 05:00N 37°58' W 122°26'5 9.4
2017-Oct-12 04:30N 38°02' W 122°22'4 8.3
2017-Oct-12 04:00N 38°03' W 122°17'4 7.9
2017-Oct-12 03:30N 38°03' W 122°12'1 0.0
2017-Oct-10 01:13N 38°03' W 122°11'1 5.9
2017-Oct-10 01:00N 38°03' W 122°12'4 6.5
2017-Oct-10 00:26N 38°03' W 122°17'3 6.5
2017-Oct-10 00:01N 38°03' W 122°20'3 6.6
2017-Oct-09 23:29N 38°01' W 122°24'3 4.8
2017-Oct-09 22:58N 37°59' W 122°27'0 0.0
2017-Oct-09 18:56N 37°59' W 122°27'0 0.0
2017-Oct-09 18:28N 37°59' W 122°27'0 0.1
2017-Oct-09 14:18N 37°59' W 122°27'1 1.9
2017-Oct-09 14:00N 37°59' W 122°26'0 0.0
2017-Oct-09 13:26N 37°59' W 122°26'0 0.1
2017-Oct-09 07:48N 37°59' W 122°27'0 1.3
2017-Oct-09 07:28N 37°59' W 122°26'0 0.0
2017-Oct-09 05:28N 37°59' W 122°26'0 0.0
2017-Oct-09 02:55N 37°59' W 122°26'2 5.1
2017-Oct-09 02:29N 38°00' W 122°24'610.0
2017-Oct-09 01:52N 38°03' W 122°17'4 9.7
2017-Oct-09 01:30N 38°04' W 122°13'  

Dump ship's entire track history